Time;durP1;ratioP1;P1;durP2;ratioP2;P2;SDS_P1;SDS_P2;PMS_P1;PMS_P2;Temp;Humidity;BMP_temperature;BMP_pressure;BME280_temperature;BME280_humidity;BME280_pressure;Samples;Min_cycle;Max_cycle;Signal;HPM_P1;HPM_P2
2023/04/16 00:01:02;;;;;;;5.33;2.97;;;;;;;-145.69;100.00;52412.69;5075110;28;20269;-79
2023/04/16 00:03:29;;;;;;;5.37;3.60;;;;;;;-145.69;100.00;52418.63;5074560;28;20198;-79
2023/04/16 00:05:55;;;;;;;6.47;3.70;;;;;;;-145.69;100.00;52424.59;5073988;28;20244;-79
2023/04/16 00:08:23;;;;;;;7.40;4.20;;;;;;;-145.69;100.00;52424.59;5074726;28;20191;-79
2023/04/16 00:10:49;;;;;;;5.50;3.90;;;;;;;-145.69;100.00;52426.56;5062095;28;20739;-79
2023/04/16 00:13:16;;;;;;;7.10;3.90;;;;;;;-145.69;100.00;52410.72;5054741;28;20219;-79
2023/04/16 00:15:44;;;;;;;6.57;3.47;;;;;;;-145.69;100.00;52404.78;5054655;28;20203;-79
2023/04/16 00:18:10;;;;;;;7.63;4.50;;;;;;;-145.69;100.00;52422.59;5074701;28;20202;-79
2023/04/16 00:20:37;;;;;;;10.17;4.50;;;;;;;-145.69;100.00;52412.69;5074755;28;20195;-78
2023/04/16 00:23:03;;;;;;;7.40;3.80;;;;;;;-145.69;100.00;52444.38;5074196;28;20199;-79
2023/04/16 00:25:30;;;;;;;7.00;4.17;;;;;;;-145.69;100.00;52422.59;5074717;28;20203;-80
2023/04/16 00:27:56;;;;;;;6.90;3.83;;;;;;;-145.69;100.00;52416.66;5074571;28;20199;-78
2023/04/16 00:30:23;;;;;;;8.30;4.27;;;;;;;-145.69;100.00;52430.53;5074491;28;20206;-80
2023/04/16 00:32:50;;;;;;;8.93;4.40;;;;;;;-145.69;100.00;52416.66;5074273;28;20213;-80
2023/04/16 00:35:17;;;;;;;8.13;4.00;;;;;;;-145.69;100.00;52388.94;5074272;28;20305;-79
2023/04/16 00:37:43;;;;;;;9.67;4.37;;;;;;;-145.69;100.00;52410.72;5074117;28;20673;-79
2023/04/16 00:40:11;;;;;;;9.50;4.77;;;;;;;-145.69;100.00;52434.47;5074473;28;20203;-79
2023/04/16 00:42:37;;;;;;;8.33;4.33;;;;;;;-145.69;100.00;52452.31;5074243;28;20203;-78
2023/04/16 00:45:05;;;;;;;6.93;4.07;;;;;;;-145.69;100.00;52440.44;5074128;28;20231;-80
2023/04/16 00:47:31;;;;;;;8.53;4.43;;;;;;;-145.69;100.00;52440.44;5074155;28;20203;-79
2023/04/16 00:49:59;;;;;;;9.23;4.67;;;;;;;-145.69;100.00;52426.56;5074226;28;20227;-79
2023/04/16 00:52:27;;;;;;;8.17;4.70;;;;;;;-145.69;100.00;52438.44;5074066;28;20664;-79
2023/04/16 00:54:54;;;;;;;9.73;4.97;;;;;;;-145.69;100.00;52456.28;5073544;28;20226;-79
2023/04/16 00:57:22;;;;;;;10.67;5.37;;;;;;;-145.69;100.00;52404.78;5073904;28;20296;-79
2023/04/16 00:59:49;;;;;;;9.73;4.73;;;;;;;-145.69;100.00;52416.66;5074075;28;20226;-80
2023/04/16 01:02:16;;;;;;;10.53;5.17;;;;;;;-145.69;100.00;52452.31;5074034;28;20203;-79
2023/04/16 01:04:42;;;;;;;8.33;4.67;;;;;;;-145.69;100.00;52460.22;5073522;28;20207;-79
2023/04/16 01:07:11;;;;;;;8.93;5.00;;;;;;;-145.69;100.00;52406.75;5073079;28;20630;-79
2023/04/16 01:09:37;;;;;;;8.50;4.33;;;;;;;-145.69;100.00;52450.31;5073655;28;20207;-79
2023/04/16 01:12:04;;;;;;;8.80;4.47;;;;;;;-145.69;100.00;52424.59;5073112;28;20213;-79
2023/04/16 01:14:35;;;;;;;9.87;4.73;;;;;;;-145.69;100.00;52430.53;5073305;28;20711;-79
2023/04/16 01:17:01;;;;;;;10.33;4.80;;;;;;;-145.69;100.00;52424.59;5073659;28;20604;-83
2023/04/16 01:19:29;;;;;;;10.70;5.27;;;;;;;-145.69;100.00;52478.06;5073543;28;20209;-79
2023/04/16 01:21:57;;;;;;;9.57;5.00;;;;;;;-145.69;100.00;52460.22;5073605;28;20203;-79
2023/04/16 01:24:24;;;;;;;8.97;4.50;;;;;;;-145.69;100.00;52420.63;5073434;28;20203;-80
2023/04/16 01:26:50;;;;;;;11.10;4.83;;;;;;;-145.69;100.00;52420.63;5073626;28;20205;-79
2023/04/16 01:29:17;;;;;;;9.17;4.73;;;;;;;-145.69;100.00;52448.34;5073288;28;20206;-79
2023/04/16 01:31:45;;;;;;;11.73;4.60;;;;;;;-145.69;100.00;52420.63;5073289;28;20654;-80
2023/04/16 01:34:12;;;;;;;10.43;5.67;;;;;;;-145.69;100.00;52472.13;5072810;28;20222;-79
2023/04/16 01:36:38;;;;;;;11.57;5.13;;;;;;;-145.69;100.00;52408.75;5073263;28;20203;-80
2023/04/16 01:39:06;;;;;;;13.43;5.10;;;;;;;-145.69;100.00;52460.22;5073035;28;20206;-79
2023/04/16 01:41:32;;;;;;;10.13;5.23;;;;;;;-145.69;100.00;52478.06;5072943;28;20195;-79
2023/04/16 01:43:59;;;;;;;9.13;4.30;;;;;;;-145.69;100.00;52462.22;5072691;28;20226;-80
2023/04/16 01:46:28;;;;;;;8.10;4.47;;;;;;;-145.69;100.00;52440.44;5073205;28;20210;-79
2023/04/16 01:48:55;;;;;;;9.60;4.67;;;;;;;-145.69;100.00;52456.28;5073190;28;20238;-79
2023/04/16 01:51:21;;;;;;;10.67;4.93;;;;;;;-145.69;100.00;52414.69;5073124;28;20198;-79
2023/04/16 01:53:49;;;;;;;10.70;5.10;;;;;;;-145.69;100.00;52458.25;5072849;28;20210;-79
2023/04/16 01:56:16;;;;;;;10.63;5.47;;;;;;;-145.69;100.00;52446.38;5073164;28;20290;-79
2023/04/16 01:58:44;;;;;;;8.53;4.60;;;;;;;-145.69;100.00;52424.59;5072900;28;20195;-79
2023/04/16 02:01:11;;;;;;;10.50;5.10;;;;;;;-145.69;100.00;52440.44;5073049;28;20206;-79
2023/04/16 02:03:38;;;;;;;11.67;4.67;;;;;;;-145.69;100.00;52408.75;5071983;28;20191;-79
2023/04/16 02:06:05;;;;;;;10.80;4.63;;;;;;;-145.69;100.00;52406.75;5054732;28;20212;-79
2023/04/16 02:08:31;;;;;;;9.50;4.57;;;;;;;-145.69;100.00;52416.66;5072589;28;20202;-79
2023/04/16 02:11:00;;;;;;;9.10;4.37;;;;;;;-145.69;100.00;52438.44;5072312;28;20680;-79
2023/04/16 02:13:28;;;;;;;10.80;5.23;;;;;;;-145.69;100.00;52426.56;5072795;28;20198;-80
2023/04/16 02:15:54;;;;;;;9.90;4.83;;;;;;;-145.69;100.00;52442.41;5072334;28;20230;-80
2023/04/16 02:18:21;;;;;;;10.73;4.90;;;;;;;-145.69;100.00;52440.44;5072103;28;20565;-79
2023/04/16 02:20:48;;;;;;;11.23;4.90;;;;;;;-145.69;100.00;52450.31;5072622;28;20198;-79
2023/04/16 02:23:15;;;;;;;10.97;4.90;;;;;;;-145.69;100.00;52440.44;5072885;28;20210;-79
2023/04/16 02:25:42;;;;;;;10.17;4.83;;;;;;;-145.69;100.00;52448.34;5072813;28;20199;-79
2023/04/16 02:28:09;;;;;;;11.67;4.90;;;;;;;-145.69;100.00;52468.16;5072740;28;20546;-80
2023/04/16 02:30:38;;;;;;;9.90;4.47;;;;;;;-145.69;100.00;52436.47;5072604;28;20653;-79
2023/04/16 02:33:06;;;;;;;9.87;4.83;;;;;;;-145.69;100.00;52452.31;5072170;28;20198;-80
2023/04/16 02:35:33;;;;;;;10.93;4.90;;;;;;;-145.69;100.00;52444.38;5072292;28;20227;-79
2023/04/16 02:37:59;;;;;;;9.67;4.47;;;;;;;-145.69;100.00;52426.56;5072589;28;20202;-80
2023/04/16 02:40:26;;;;;;;11.53;5.03;;;;;;;-145.69;100.00;52408.75;5072720;28;20207;-79
2023/04/16 02:42:52;;;;;;;8.83;4.47;;;;;;;-145.69;100.00;52468.16;5073572;28;20195;-79
2023/04/16 02:45:19;;;;;;;9.10;4.27;;;;;;;-145.69;100.00;52432.50;5078852;28;20705;-79
2023/04/16 02:47:47;;;;;;;9.53;4.17;;;;;;;-145.69;100.00;52430.53;5072429;28;20230;-79
2023/04/16 02:50:14;;;;;;;10.05;4.68;;;;;;;-145.69;100.00;52428.53;5072098;28;20442;-79
2023/04/16 02:52:41;;;;;;;8.80;4.70;;;;;;;-145.69;100.00;52420.63;5073014;28;20195;-79
2023/04/16 02:55:08;;;;;;;10.03;4.73;;;;;;;-145.69;100.00;52450.31;5072236;28;20589;-80
2023/04/16 02:57:35;;;;;;;12.93;4.53;;;;;;;-145.69;100.00;52478.06;5072384;28;20203;-79
2023/04/16 03:00:03;;;;;;;9.67;4.13;;;;;;;-145.69;100.00;52420.63;5072370;28;20241;-79
2023/04/16 03:02:29;;;;;;;8.00;4.10;;;;;;;-145.69;100.00;52428.53;5072314;28;20202;-79
2023/04/16 03:04:57;;;;;;;10.80;4.40;;;;;;;-145.69;100.00;52424.59;5072248;28;20195;-79
2023/04/16 03:07:24;;;;;;;8.00;3.67;;;;;;;-145.69;100.00;52450.31;5070619;28;20199;-79
2023/04/16 03:09:50;;;;;;;8.30;4.00;;;;;;;-145.69;100.00;52440.44;5071520;28;20209;-80
2023/04/16 03:12:17;;;;;;;7.30;3.93;;;;;;;-145.69;100.00;52454.28;5072283;28;20195;-79
2023/04/16 03:14:43;;;;;;;8.73;3.87;;;;;;;-145.69;100.00;52484.00;5072061;28;20248;-79
2023/04/16 03:17:10;;;;;;;8.50;4.07;;;;;;;-145.69;100.00;52438.44;5072158;28;20203;-80
2023/04/16 03:19:36;;;;;;;7.70;3.77;;;;;;;-145.69;100.00;52448.34;5072421;28;20293;-79
2023/04/16 03:22:05;;;;;;;7.27;3.33;;;;;;;-145.69;100.00;52450.31;5072283;28;20198;-79
2023/04/16 03:24:31;;;;;;;7.47;3.97;;;;;;;-145.69;100.00;52470.13;5071989;28;20234;-79
2023/04/16 03:26:58;;;;;;;8.50;4.33;;;;;;;-145.69;100.00;52448.34;5072210;28;20206;-79
2023/04/16 03:29:25;;;;;;;8.00;4.10;;;;;;;-145.69;100.00;52440.44;5072063;28;20198;-79
2023/04/16 03:31:52;;;;;;;11.40;3.97;;;;;;;-145.69;100.00;52487.97;5075671;28;20199;-79
2023/04/16 03:34:18;;;;;;;8.03;3.97;;;;;;;-145.69;100.00;52452.31;5075614;28;20669;-79
2023/04/16 03:36:45;;;;;;;9.47;4.13;;;;;;;-145.69;100.00;52416.66;5075602;28;20210;-79
2023/04/16 03:39:13;;;;;;;8.77;4.17;;;;;;;-145.69;100.00;52440.44;5075712;28;20301;-80
2023/04/16 03:41:39;;;;;;;10.15;4.40;;;;;;;-145.69;100.00;52470.13;5074072;28;20461;-80
2023/04/16 03:44:05;;;;;;;11.40;4.83;;;;;;;-145.69;100.00;52442.41;5073542;28;20585;-79
2023/04/16 03:46:32;;;;;;;8.63;3.87;;;;;;;-145.69;100.00;52448.34;5074926;28;20191;-80
2023/04/16 03:48:58;;;;;;;9.37;4.17;;;;;;;-145.69;100.00;52444.38;5075356;28;20199;-79
2023/04/16 03:51:25;;;;;;;10.40;4.57;;;;;;;-145.69;100.00;52485.97;5075157;28;20199;-79
2023/04/16 03:53:51;;;;;;;10.00;4.43;;;;;;;-145.69;100.00;52450.31;5075318;28;20195;-80
2023/04/16 03:56:19;;;;;;;8.97;4.20;;;;;;;-145.69;100.00;52428.53;5075191;28;20257;-79
2023/04/16 03:58:46;;;;;;;8.80;4.30;;;;;;;-145.69;100.00;52434.47;5074580;28;20199;-79
2023/04/16 04:01:12;;;;;;;10.07;4.57;;;;;;;-145.69;100.00;52438.44;5074942;28;20200;-79
2023/04/16 04:03:38;;;;;;;9.73;4.33;;;;;;;-145.69;100.00;52440.44;5075009;28;20187;-80
2023/04/16 04:06:07;;;;;;;10.60;4.70;;;;;;;-145.69;100.00;52446.38;5074751;28;20203;-79
2023/04/16 04:08:33;;;;;;;9.70;4.80;;;;;;;-145.69;100.00;52440.44;5073979;28;20203;-79
2023/04/16 04:11:00;;;;;;;9.90;4.17;;;;;;;-145.69;100.00;52448.34;5074943;28;20210;-80
2023/04/16 04:13:27;;;;;;;9.43;4.47;;;;;;;-145.69;100.00;52464.19;5070119;28;20194;-79
2023/04/16 04:15:54;;;;;;;7.87;4.13;;;;;;;-145.69;100.00;52472.13;5074888;28;20227;-80
2023/04/16 04:18:20;;;;;;;9.53;4.80;;;;;;;-145.69;100.00;52472.13;5074926;28;20614;-79
2023/04/16 04:20:47;;;;;;;7.20;4.13;;;;;;;-145.69;100.00;52452.31;5074884;28;20205;-79
2023/04/16 04:23:13;;;;;;;9.30;4.57;;;;;;;-145.69;100.00;52460.22;5074786;28;20203;-80
2023/04/16 04:25:40;;;;;;;8.37;3.87;;;;;;;-145.69;100.00;52456.28;5074681;28;20205;-80
2023/04/16 04:28:06;;;;;;;7.57;3.73;;;;;;;-145.69;100.00;52444.38;5074518;28;20210;-80
2023/04/16 04:30:34;;;;;;;8.67;3.97;;;;;;;-145.69;100.00;52487.97;5074416;28;20198;-79
2023/04/16 04:33:01;;;;;;;7.73;4.30;;;;;;;-145.69;100.00;52432.50;5074699;28;20233;-79
2023/04/16 04:35:27;;;;;;;8.50;4.67;;;;;;;-145.69;100.00;52422.59;5074346;28;20807;-80
2023/04/16 04:37:53;;;;;;;6.07;3.60;;;;;;;-145.69;100.00;52448.34;5074452;28;20206;-79
2023/04/16 04:40:20;;;;;;;9.80;4.50;;;;;;;-145.69;100.00;52424.59;5074309;28;20653;-79
2023/04/16 04:42:46;;;;;;;7.83;4.57;;;;;;;-145.69;100.00;52491.91;5073678;28;20600;-79
2023/04/16 04:45:13;;;;;;;7.90;4.23;;;;;;;-145.69;100.00;52480.03;5074137;28;20222;-79
2023/04/16 04:47:41;;;;;;;6.90;3.90;;;;;;;-145.69;100.00;52440.44;5073858;28;20201;-79
2023/04/16 04:50:08;;;;;;;6.20;3.73;;;;;;;-145.69;100.00;52436.47;5073770;28;20675;-79
2023/04/16 04:52:35;;;;;;;15.27;4.10;;;;;;;-145.69;100.00;52430.53;5073518;28;20844;-80
2023/04/16 04:55:01;;;;;;;7.30;4.00;;;;;;;-145.69;100.00;52460.22;5073853;28;20714;-79
2023/04/16 04:57:28;;;;;;;7.73;4.00;;;;;;;-145.69;100.00;52480.03;5073852;28;20653;-80
2023/04/16 04:59:54;;;;;;;7.70;4.25;;;;;;;-145.69;100.00;52440.44;5073731;28;20434;-80
2023/04/16 05:02:20;;;;;;;6.43;4.00;;;;;;;-145.69;100.00;52464.19;5074078;28;20199;-79
2023/04/16 05:04:48;;;;;;;7.03;3.63;;;;;;;-145.69;100.00;52448.34;5073889;28;20203;-79
2023/04/16 05:07:15;;;;;;;6.70;3.90;;;;;;;-145.69;100.00;52491.91;5073870;28;20198;-80
2023/04/16 05:09:41;;;;;;;8.33;3.63;;;;;;;-145.69;100.00;52470.13;5073785;28;20198;-80
2023/04/16 05:12:08;;;;;;;7.50;3.53;;;;;;;-145.69;100.00;52468.16;5073377;28;20202;-79
2023/04/16 05:14:35;;;;;;;8.53;3.90;;;;;;;-145.69;100.00;52402.78;5073505;28;20214;-79
2023/04/16 05:17:01;;;;;;;7.37;3.30;;;;;;;-145.69;100.00;52468.16;5073634;28;20199;-79
2023/04/16 05:19:27;;;;;;;6.77;3.90;;;;;;;-145.69;100.00;52438.44;5073668;28;20202;-79
2023/04/16 05:21:55;;;;;;;5.83;3.70;;;;;;;-145.69;100.00;52464.19;5073263;28;20194;-80
2023/04/16 05:24:22;;;;;;;7.27;2.90;;;;;;;-145.69;100.00;52448.34;5073745;28;20198;-80
2023/04/16 05:26:49;;;;;;;5.90;3.23;;;;;;;-145.69;100.00;52482.00;5073394;28;20202;-79
2023/04/16 05:29:15;;;;;;;8.50;3.87;;;;;;;-145.69;100.00;52476.06;5073528;28;20202;-79
2023/04/16 05:31:42;;;;;;;8.87;4.67;;;;;;;-145.69;100.00;52458.25;5073398;28;20202;-80
2023/04/16 05:34:08;;;;;;;8.07;4.10;;;;;;;-145.69;100.00;52472.13;5073378;28;20195;-79
2023/04/16 05:36:34;;;;;;;10.83;4.77;;;;;;;-145.69;100.00;52452.31;5073077;28;20226;-78
2023/04/16 05:39:02;;;;;;;11.63;5.03;;;;;;;-145.69;100.00;52476.06;5073485;28;20202;-79
2023/04/16 05:41:29;;;;;;;10.83;4.57;;;;;;;-145.69;100.00;52484.00;5073342;28;20209;-80
2023/04/16 05:43:55;;;;;;;12.63;5.13;;;;;;;-145.69;100.00;52440.44;5072794;28;20253;-80
2023/04/16 05:46:22;;;;;;;12.23;4.50;;;;;;;-145.69;100.00;52482.00;5073297;28;20234;-80
2023/04/16 05:48:48;;;;;;;11.97;5.10;;;;;;;-145.69;100.00;52464.19;5073027;28;20209;-80
2023/04/16 05:51:15;;;;;;;13.57;5.90;;;;;;;-145.69;100.00;52444.38;5072809;28;20552;-80
2023/04/16 05:53:41;;;;;;;10.47;5.37;;;;;;;-145.69;100.00;52460.22;5072214;28;20198;-79
2023/04/16 05:56:09;;;;;;;10.73;5.17;;;;;;;-145.69;100.00;52476.06;5073053;28;20234;-80
2023/04/16 05:58:36;;;;;;;12.00;5.83;;;;;;;-145.69;100.00;52446.38;5072916;28;20199;-79
2023/04/16 06:01:02;;;;;;;10.97;5.17;;;;;;;-145.69;100.00;52452.31;5072546;28;20292;-80
2023/04/16 06:03:28;;;;;;;10.80;5.07;;;;;;;-145.69;100.00;52454.28;5072840;28;20202;-79
2023/04/16 06:05:55;;;;;;;13.00;5.23;;;;;;;-145.69;100.00;52480.03;5072575;28;20558;-79
2023/04/16 06:08:21;;;;;;;10.50;5.33;;;;;;;-145.69;100.00;52464.19;5072881;28;20665;-79
2023/04/16 06:10:49;;;;;;;12.90;6.17;;;;;;;-145.69;100.00;52456.28;5072943;28;20226;-80
2023/04/16 06:13:16;;;;;;;14.57;5.87;;;;;;;-145.69;100.00;52472.13;5072265;28;20195;-80
2023/04/16 06:15:43;;;;;;;14.63;6.60;;;;;;;-145.69;100.00;52450.31;5068601;28;20214;-79
2023/04/16 06:18:09;;;;;;;15.10;6.27;;;;;;;-145.69;100.00;52472.13;5072685;28;20198;-79
2023/04/16 06:20:36;;;;;;;14.57;6.30;;;;;;;-145.69;100.00;52476.06;5072974;28;20535;-80
2023/04/16 06:23:02;;;;;;;16.23;6.13;;;;;;;-145.69;100.00;52456.28;5072862;28;20199;-80
2023/04/16 06:25:29;;;;;;;15.33;7.00;;;;;;;-145.69;100.00;52422.59;5072396;28;20199;-81
2023/04/16 06:27:55;;;;;;;20.37;7.30;;;;;;;-145.69;100.00;52416.66;5072346;28;20198;-80
2023/04/16 06:30:23;;;;;;;18.53;7.23;;;;;;;-145.69;100.00;52476.06;5072253;28;20561;-80
2023/04/16 06:32:50;;;;;;;17.10;7.07;;;;;;;-145.69;100.00;52491.91;5072560;28;20198;-80
2023/04/16 06:35:18;;;;;;;15.40;7.10;;;;;;;-145.69;100.00;52468.16;5072500;28;20210;-79
2023/04/16 06:37:45;;;;;;;16.67;7.00;;;;;;;-145.69;100.00;52456.28;5072727;28;20226;-80
2023/04/16 06:40:12;;;;;;;17.63;6.47;;;;;;;-145.69;100.00;52434.47;5072673;28;20194;-80
2023/04/16 06:42:39;;;;;;;15.00;6.47;;;;;;;-145.69;100.00;52440.44;5071724;28;20557;-80
2023/04/16 06:45:07;;;;;;;15.87;6.17;;;;;;;-145.69;100.00;52444.38;5072229;28;20269;-81
2023/04/16 06:47:34;;;;;;;15.90;6.17;;;;;;;-145.69;100.00;52485.97;5072069;28;20194;-79
2023/04/16 06:50:01;;;;;;;15.20;6.20;;;;;;;-145.69;100.00;52468.16;5072719;28;20195;-80
2023/04/16 06:52:29;;;;;;;12.27;5.40;;;;;;;-145.69;100.00;52436.47;5072453;28;20225;-80
2023/04/16 06:54:56;;;;;;;16.63;6.43;;;;;;;-145.69;100.00;52454.28;5072632;28;20222;-79
2023/04/16 06:57:22;;;;;;;17.80;6.97;;;;;;;-145.69;100.00;52440.44;5072308;28;20693;-80
2023/04/16 06:59:49;;;;;;;16.10;6.50;;;;;;;-145.69;100.00;52458.25;5072499;28;20228;-80
2023/04/16 07:02:15;;;;;;;12.33;5.67;;;;;;;-145.69;100.00;52487.97;5072512;28;20278;-80
2023/04/16 07:04:43;;;;;;;16.20;6.07;;;;;;;-145.69;100.00;52428.53;5053106;28;20195;-80
2023/04/16 07:07:09;;;;;;;14.57;6.60;;;;;;;-145.69;100.00;52478.06;5056212;28;20217;-81
2023/04/16 07:09:36;;;;;;;14.80;6.20;;;;;;;-145.69;100.00;52476.06;5056139;28;20200;-81
2023/04/16 07:12:03;;;;;;;15.63;6.47;;;;;;;-145.69;100.00;52485.97;5058683;28;20209;-80
2023/04/16 07:14:29;;;;;;;13.90;5.53;;;;;;;-145.69;100.00;52442.41;5075949;28;20198;-80
2023/04/16 07:16:56;;;;;;;13.03;6.03;;;;;;;-145.69;100.00;52464.19;5075969;28;20317;-80
2023/04/16 07:19:22;;;;;;;14.73;6.17;;;;;;;-145.69;100.00;52442.41;5076279;28;20550;-82
2023/04/16 07:21:50;;;;;;;12.83;5.80;;;;;;;-145.69;100.00;52464.19;5070776;28;20236;-82
2023/04/16 07:24:17;;;;;;;14.73;5.70;;;;;;;-145.69;100.00;52446.38;5076848;28;20533;-82
2023/04/16 07:26:43;;;;;;;12.87;5.40;;;;;;;-145.69;100.00;52484.00;5075952;28;20199;-82
2023/04/16 07:29:10;;;;;;;16.70;5.80;;;;;;;-145.69;100.00;52474.09;5076187;28;20195;-83
2023/04/16 07:31:36;;;;;;;16.37;6.47;;;;;;;-145.69;100.00;52450.31;5076062;28;20203;-82
2023/04/16 07:34:03;;;;;;;15.03;5.80;;;;;;;-145.69;100.00;52428.53;5076091;28;20203;-81
2023/04/16 07:36:30;;;;;;;17.30;7.00;;;;;;;-145.69;100.00;52460.22;5075644;28;20230;-82
2023/04/16 07:38:58;;;;;;;19.77;7.30;;;;;;;-145.69;100.00;52468.16;5075746;28;20256;-82
2023/04/16 07:41:25;;;;;;;17.53;7.43;;;;;;;-145.69;100.00;52442.41;5074243;28;20597;-81
2023/04/16 07:43:51;;;;;;;21.63;8.07;;;;;;;-145.69;100.00;52440.44;5075182;28;20195;-80
2023/04/16 07:46:18;;;;;;;23.57;9.30;;;;;;;-145.69;100.00;52444.38;5076026;28;20217;-81
2023/04/16 07:48:45;;;;;;;29.40;9.80;;;;;;;-145.69;100.00;52456.28;5075704;28;20195;-80
2023/04/16 07:51:11;;;;;;;24.10;8.60;;;;;;;-145.69;100.00;52458.25;5075570;28;20282;-81
2023/04/16 07:53:38;;;;;;;25.60;8.87;;;;;;;-145.69;100.00;52472.13;5075270;28;20199;-81
2023/04/16 07:56:07;;;;;;;20.10;8.57;;;;;;;-145.69;100.00;52464.19;5074962;28;20568;-82
2023/04/16 07:58:33;;;;;;;25.63;8.47;;;;;;;-145.69;100.00;52464.19;5075453;28;20203;-81
2023/04/16 08:01:00;;;;;;;21.57;7.70;;;;;;;-145.69;100.00;52476.06;5075183;28;20218;-82
2023/04/16 08:03:26;;;;;;;24.73;8.37;;;;;;;-145.69;100.00;52458.25;5075278;28;20245;-82
2023/04/16 08:05:53;;;;;;;24.60;8.17;;;;;;;-145.69;100.00;52432.50;5074878;28;20195;-82
2023/04/16 08:08:19;;;;;;;22.67;7.97;;;;;;;-145.69;100.00;52428.53;5075210;28;20199;-80
2023/04/16 08:10:46;;;;;;;21.23;8.07;;;;;;;-145.69;100.00;52476.06;5074626;28;20203;-81
2023/04/16 08:13:14;;;;;;;23.30;8.23;;;;;;;-145.69;100.00;52484.00;5074591;28;20199;-81
2023/04/16 08:15:40;;;;;;;21.20;7.63;;;;;;;-145.69;100.00;52468.16;5074782;28;20209;-81
2023/04/16 08:18:11;;;;;;;22.00;8.27;;;;;;;-145.69;100.00;52464.19;5073730;28;20871;-81
2023/04/16 08:20:38;;;;;;;24.60;8.57;;;;;;;-145.69;100.00;52436.47;5074655;28;20225;-81
2023/04/16 08:23:04;;;;;;;19.60;7.73;;;;;;;-145.69;100.00;52440.44;5070008;28;20203;-81
2023/04/16 08:25:31;;;;;;;22.00;8.63;;;;;;;-145.69;100.00;52456.28;5054556;28;20217;-81
2023/04/16 08:27:57;;;;;;;19.63;7.87;;;;;;;-145.69;100.00;52460.22;5059525;28;20560;-82
2023/04/16 08:30:25;;;;;;;18.13;7.73;;;;;;;-145.69;100.00;52476.06;5074724;28;20199;-81
2023/04/16 08:32:52;;;;;;;20.73;8.63;;;;;;;-145.69;100.00;52472.13;5074562;28;20290;-81
2023/04/16 08:35:19;;;;;;;24.47;9.83;;;;;;;-145.69;100.00;52468.16;5074585;28;20210;-81
2023/04/16 08:37:45;;;;;;;32.53;10.53;;;;;;;-145.69;100.00;52497.84;5074308;28;20223;-81
2023/04/16 08:40:12;;;;;;;36.63;11.83;;;;;;;-145.69;100.00;52503.81;5074012;28;20557;-81
2023/04/16 08:42:44;;;;;;;30.50;10.97;;;;;;;-145.69;100.00;52484.00;5074235;28;20209;-81
2023/04/16 08:45:14;;;;;;;29.53;11.17;;;;;;;-145.69;100.00;52444.38;5073964;28;20229;-81
2023/04/16 08:47:46;;;;;;;30.33;11.30;;;;;;;-145.69;100.00;52444.38;5073976;28;20252;-81
2023/04/16 08:50:14;;;;;;;29.77;11.73;;;;;;;-145.69;100.00;52428.53;5074083;28;20203;-81
2023/04/16 08:52:46;;;;;;;31.00;12.83;;;;;;;-145.69;100.00;52472.13;5074095;28;20203;-82
2023/04/16 08:55:14;;;;;;;33.70;11.87;;;;;;;-145.69;100.00;52480.03;5074317;28;20268;-81
2023/04/16 08:57:47;;;;;;;34.43;12.73;;;;;;;-145.69;100.00;52448.34;5074030;28;20226;-81
2023/04/16 09:00:15;;;;;;;34.47;12.50;;;;;;;-145.69;100.00;52454.28;5074148;28;20663;-81
2023/04/16 09:02:43;;;;;;;31.30;12.93;;;;;;;-145.69;100.00;52484.00;5073756;28;20197;-80
2023/04/16 09:05:10;;;;;;;30.40;12.30;;;;;;;-145.69;100.00;52480.03;5073830;28;20557;-82
2023/04/16 09:07:38;;;;;;;32.63;12.03;;;;;;;-145.69;100.00;52472.13;5073927;28;20198;-81
2023/04/16 09:10:08;;;;;;;32.73;11.23;;;;;;;-145.69;100.00;52476.06;5073833;28;20570;-81
2023/04/16 09:12:35;;;;;;;34.10;12.63;;;;;;;-145.69;100.00;52476.06;5073852;28;20238;-80
2023/04/16 09:15:03;;;;;;;31.80;12.97;;;;;;;-145.69;100.00;52442.41;5073911;28;20573;-81
2023/04/16 09:17:30;;;;;;;36.57;14.77;;;;;;;-145.69;100.00;52462.22;5076944;28;20227;-80
2023/04/16 09:19:58;;;;;;;36.67;14.07;;;;;;;-145.69;100.00;52460.22;5078329;28;20191;-81
2023/04/16 09:22:24;;;;;;;33.97;14.10;;;;;;;-145.69;100.00;52476.06;5076390;28;20211;-83
2023/04/16 09:24:51;;;;;;;39.83;15.23;;;;;;;-145.69;100.00;52487.97;5076541;28;20672;-81
2023/04/16 09:27:17;;;;;;;33.87;14.30;;;;;;;-145.69;100.00;52480.03;5071852;28;20213;-78
2023/04/16 09:29:44;;;;;;;39.37;14.93;;;;;;;-145.69;100.00;52493.91;5073365;28;20207;-79
2023/04/16 09:32:11;;;;;;;37.90;15.50;;;;;;;-145.69;100.00;52495.88;5073201;28;20223;-79
2023/04/16 09:34:56;;;;;;;44.93;15.93;;;;;;;-145.69;100.00;52464.19;5073566;28;20205;-79
2023/04/16 09:37:25;;;;;;;44.60;16.03;;;;;;;-145.69;100.00;52472.13;5072688;28;20753;-79
2023/04/16 09:39:56;;;;;;;45.47;17.67;;;;;;;-145.69;100.00;52460.22;5073114;28;20222;-80
2023/04/16 09:42:25;;;;;;;43.63;16.77;;;;;;;-145.69;100.00;52484.00;5072800;28;20222;-76
2023/04/16 09:44:52;;;;;;;44.70;16.93;;;;;;;-145.69;100.00;52448.34;5072829;28;20241;-77
2023/04/16 09:47:19;;;;;;;40.63;17.20;;;;;;;-145.69;100.00;52456.28;5072499;28;20191;-78
2023/04/16 09:49:45;;;;;;;41.43;16.90;;;;;;;-145.69;100.00;52446.38;5072536;28;20205;-76
2023/04/16 09:52:16;;;;;;;44.93;17.77;;;;;;;-145.69;100.00;52436.47;5073121;28;20227;-80
2023/04/16 09:54:48;;;;;;;43.60;16.97;;;;;;;-145.69;100.00;52428.53;5072581;28;20201;-76
2023/04/16 09:57:15;;;;;;;39.07;16.47;;;;;;;-145.69;100.00;52444.38;5072834;28;20234;-78
2023/04/16 09:59:41;;;;;;;41.77;15.90;;;;;;;-145.69;100.00;52446.38;5072918;28;20202;-78
2023/04/16 10:02:08;;;;;;;42.07;15.57;;;;;;;-145.69;100.00;52458.25;5072736;28;20191;-79
2023/04/16 10:04:46;;;;;;;34.37;14.27;;;;;;;-145.69;100.00;52478.06;5072862;28;20229;-80
2023/04/16 10:07:12;;;;;;;44.33;15.50;;;;;;;-145.69;100.00;52452.31;5072866;28;20230;-79
2023/04/16 10:09:40;;;;;;;38.33;14.47;;;;;;;-145.69;100.00;52468.16;5072956;28;20275;-80
2023/04/16 10:12:09;;;;;;;32.63;14.03;;;;;;;-145.69;100.00;52474.09;5072804;28;20673;-79
2023/04/16 10:14:35;;;;;;;31.60;14.53;;;;;;;-145.69;100.00;52462.22;5072630;28;20557;-79
2023/04/16 10:17:04;;;;;;;40.97;15.23;;;;;;;-145.69;100.00;52484.00;5072129;28;20230;-79
2023/04/16 10:19:32;;;;;;;39.33;15.93;;;;;;;-145.69;100.00;52460.22;5072763;28;20205;-79
2023/04/16 10:21:58;;;;;;;40.13;15.60;;;;;;;-145.69;100.00;52484.00;5072445;28;20260;-79
2023/04/16 10:24:25;;;;;;;37.00;15.20;;;;;;;-145.69;100.00;52452.31;5066087;28;20226;-79
2023/04/16 10:26:52;;;;;;;33.63;14.10;;;;;;;-145.69;100.00;52446.38;5070447;28;20209;-79
2023/04/16 10:29:21;;;;;;;36.20;15.80;;;;;;;-145.69;100.00;52466.16;5072456;28;20603;-80
2023/04/16 10:31:48;;;;;;;34.13;14.93;;;;;;;-145.69;100.00;52452.31;5072755;28;20198;-79
2023/04/16 10:34:15;;;;;;;31.30;14.27;;;;;;;-145.69;100.00;52484.00;5072643;28;20187;-80
2023/04/16 10:36:42;;;;;;;31.50;15.60;;;;;;;-145.69;100.00;52472.13;5072595;28;20321;-80
2023/04/16 10:39:11;;;;;;;39.83;16.30;;;;;;;-145.69;100.00;52513.69;5071914;28;20190;-79
2023/04/16 10:41:38;;;;;;;36.63;16.20;;;;;;;-145.69;100.00;52452.31;5075505;28;20206;-79
2023/04/16 10:44:08;;;;;;;32.33;15.77;;;;;;;-145.69;100.00;52470.13;5076280;28;20333;-79
2023/04/16 10:46:38;;;;;;;38.27;16.90;;;;;;;-145.69;100.00;52466.16;5076406;28;20202;-78
2023/04/16 10:49:13;;;;;;;35.43;16.33;;;;;;;-145.69;100.00;52503.81;5076376;28;20206;-79
2023/04/16 10:51:41;;;;;;;44.17;17.23;;;;;;;-145.69;100.00;52484.00;5076366;28;20222;-80
2023/04/16 10:54:21;;;;;;;40.33;16.83;;;;;;;-145.69;100.00;52476.06;5076278;28;20645;-80
2023/04/16 10:56:48;;;;;;;45.83;21.57;;;;;;;-145.69;100.00;52499.84;5075683;28;20462;-80
2023/04/16 10:59:18;;;;;;;42.67;18.87;;;;;;;-145.69;100.00;52450.31;5076259;28;20886;-79
2023/04/16 11:01:47;;;;;;;38.50;17.57;;;;;;;-145.69;100.00;52476.06;5076124;28;20279;-80